Time;durP1;ratioP1;P1;durP2;ratioP2;P2;SDS_P1;SDS_P2;PMS_P1;PMS_P2;Temp;Humidity;BMP_temperature;BMP_pressure;BME280_temperature;BME280_humidity;BME280_pressure;Samples;Min_cycle;Max_cycle;Signal;HPM_P1;HPM_P2
2021/04/05 00:00:18;;;;;;;41.92;19.60;;;7.50;99.90;;;;;;5063391;28;20568;-69
2021/04/05 00:02:45;;;;;;;44.70;19.38;;;7.60;99.90;;;;;;5064835;28;20527;-69
2021/04/05 00:05:15;;;;;;;44.03;19.80;;;7.60;99.90;;;;;;5066306;28;20024;-68
2021/04/05 00:07:45;;;;;;;38.90;19.92;;;7.50;99.90;;;;;;5069847;28;20552;-68
2021/04/05 00:10:25;;;;;;;34.50;20.50;;;7.50;99.90;;;;;;5071081;28;20035;-69
2021/04/05 00:12:55;;;;;;;39.15;20.45;;;7.50;99.90;;;;;;5064584;28;20066;-69
2021/04/05 00:15:21;;;;;;;46.55;22.65;;;7.40;99.90;;;;;;5066173;28;20101;-69
2021/04/05 00:17:47;;;;;;;43.95;22.13;;;7.40;99.90;;;;;;5073519;28;20425;-69
2021/04/05 00:20:18;;;;;;;45.55;21.70;;;7.50;99.90;;;;;;5064754;28;20024;-68
2021/04/05 00:22:44;;;;;;;47.40;23.50;;;7.40;99.90;;;;;;5068288;28;21579;-69
2021/04/05 00:25:10;;;;;;;47.78;24.63;;;7.40;99.90;;;;;;5064602;28;20049;-69
2021/04/05 00:27:37;;;;;;;43.95;23.73;;;7.50;99.90;;;;;;5067827;28;20028;-69
2021/04/05 00:30:16;;;;;;;50.38;25.60;;;7.40;99.90;;;;;;5070099;28;20028;-68
2021/04/05 00:32:45;;;;;;;46.38;25.42;;;7.50;99.90;;;;;;5059739;28;20485;-69
2021/04/05 00:35:13;;;;;;;47.42;27.85;;;7.50;99.90;;;;;;5065722;28;20029;-69
2021/04/05 00:37:38;;;;;;;53.80;24.63;;;7.60;99.90;;;;;;5063012;28;20028;-69
2021/04/05 00:40:08;;;;;;;51.17;27.08;;;7.50;99.90;;;;;;5068653;28;20047;-69
2021/04/05 00:42:33;;;;;;;45.97;24.83;;;7.50;99.90;;;;;;5062713;28;20115;-68
2021/04/05 00:45:04;;;;;;;47.47;25.70;;;7.40;99.90;;;;;;5058458;28;20052;-69
2021/04/05 00:47:30;;;;;;;49.83;24.98;;;7.50;99.90;;;;;;5061599;28;20029;-69
2021/04/05 00:49:55;;;;;;;49.75;27.83;;;7.50;99.90;;;;;;5061371;28;20487;-69
2021/04/05 00:52:21;;;;;;;44.45;25.05;;;7.50;99.90;;;;;;5058234;28;20112;-69
2021/04/05 00:54:47;;;;;;;49.78;24.67;;;7.50;99.90;;;;;;5068716;28;20037;-68
2021/04/05 00:57:13;;;;;;;50.92;24.38;;;7.50;99.90;;;;;;5072211;28;20059;-69
2021/04/05 00:59:38;;;;;;;49.78;25.23;;;7.50;99.90;;;;;;5067344;28;20032;-68
2021/04/05 01:02:04;;;;;;;48.40;25.00;;;7.40;99.90;;;;;;5065435;28;20037;-68
2021/04/05 01:04:29;;;;;;;50.90;25.60;;;7.40;99.90;;;;;;5063148;28;20020;-68
2021/04/05 01:06:55;;;;;;;55.20;24.58;;;7.50;99.90;;;;;;5068383;28;20025;-69
2021/04/05 01:09:21;;;;;;;51.35;23.48;;;7.50;99.90;;;;;;5070772;28;20423;-68
2021/04/05 01:11:46;;;;;;;48.70;23.48;;;7.40;99.90;;;;;;5072104;28;20028;-68
2021/04/05 01:14:12;;;;;;;48.22;23.25;;;7.40;99.90;;;;;;5073356;28;20025;-69
2021/04/05 01:16:37;;;;;;;50.92;23.10;;;7.40;99.90;;;;;;5067074;28;20465;-69
2021/04/05 01:19:03;;;;;;;42.13;22.33;;;7.30;99.90;;;;;;5073551;28;20070;-69
2021/04/05 01:21:30;;;;;;;46.30;22.23;;;7.40;99.90;;;;;;5070799;28;20381;-68
2021/04/05 01:23:55;;;;;;;44.20;22.85;;;7.40;99.90;;;;;;5070923;28;20017;-68
2021/04/05 01:26:21;;;;;;;38.92;21.65;;;7.30;99.90;;;;;;5070360;28;20362;-69
2021/04/05 01:28:47;;;;;;;48.42;24.33;;;7.40;99.90;;;;;;5067224;28;20025;-69
2021/04/05 01:31:12;;;;;;;43.05;22.65;;;7.30;99.90;;;;;;5068221;28;20024;-69
2021/04/05 01:33:41;;;;;;;50.28;23.52;;;7.40;99.90;;;;;;5068770;28;20080;-69
2021/04/05 01:36:08;;;;;;;45.45;24.60;;;7.40;99.90;;;;;;5064564;28;20109;-69
2021/04/05 01:38:56;;;;;;;42.35;20.95;;;7.40;99.90;;;;;;5070696;28;20465;-69
2021/04/05 01:41:25;;;;;;;46.38;21.52;;;7.30;99.90;;;;;;5065959;28;20556;-69
2021/04/05 01:43:50;;;;;;;42.13;22.83;;;7.40;99.90;;;;;;5065585;28;20336;-69
2021/04/05 01:46:18;;;;;;;45.22;21.23;;;7.30;99.90;;;;;;5073981;28;20020;-69
2021/04/05 01:48:44;;;;;;;42.55;20.70;;;7.30;99.90;;;;;;5065557;28;20083;-69
2021/04/05 01:51:14;;;;;;;47.78;20.33;;;7.30;99.90;;;;;;5065442;28;20020;-68
2021/04/05 01:53:41;;;;;;;41.58;20.98;;;7.10;99.90;;;;;;5066895;28;20025;-69
2021/04/05 01:56:10;;;;;;;47.78;21.83;;;7.20;99.90;;;;;;5066396;28;20110;-69
2021/04/05 01:58:37;;;;;;;43.75;20.85;;;7.10;99.90;;;;;;5070439;28;20025;-69
2021/04/05 02:01:04;;;;;;;40.35;20.33;;;7.20;99.90;;;;;;5072378;28;20064;-69
2021/04/05 02:03:30;;;;;;;48.42;20.52;;;7.20;99.90;;;;;;5065593;28;20031;-69
2021/04/05 02:06:09;;;;;;;40.17;20.15;;;7.10;99.90;;;;;;5070698;28;20107;-68
2021/04/05 02:08:37;;;;;;;41.03;19.25;;;7.10;99.90;;;;;;5064900;28;20075;-69
2021/04/05 02:11:18;;;;;;;40.55;18.45;;;7.10;99.90;;;;;;5077021;28;20029;-69
2021/04/05 02:13:46;;;;;;;39.13;18.23;;;7.00;99.90;;;;;;5070350;28;20111;-69
2021/04/05 02:16:16;;;;;;;48.53;18.60;;;7.00;99.90;;;;;;5079169;28;20032;-69
2021/04/05 02:18:42;;;;;;;41.72;17.42;;;7.00;99.90;;;;;;5075218;28;20028;-69
2021/04/05 02:21:12;;;;;;;35.97;17.67;;;7.10;99.90;;;;;;5080311;28;20107;-68
2021/04/05 02:23:39;;;;;;;37.92;18.65;;;7.00;99.90;;;;;;5078478;28;20029;-68
2021/04/05 02:26:08;;;;;;;40.13;17.83;;;7.00;99.90;;;;;;5067916;28;20036;-69
2021/04/05 02:28:35;;;;;;;35.88;16.92;;;7.00;99.90;;;;;;5073639;28;20031;-69
2021/04/05 02:31:03;;;;;;;39.22;18.25;;;7.10;99.90;;;;;;5077033;28;20036;-69
2021/04/05 02:33:29;;;;;;;33.80;16.30;;;7.00;99.90;;;;;;5072251;28;20024;-69
2021/04/05 02:35:54;;;;;;;33.35;17.10;;;7.00;99.90;;;;;;5068105;28;20017;-69
2021/04/05 02:38:20;;;;;;;35.10;16.77;;;7.00;99.90;;;;;;5059715;28;20033;-69
2021/04/05 02:40:46;;;;;;;48.22;16.67;;;7.10;99.90;;;;;;5061684;28;20049;-69
2021/04/05 02:43:13;;;;;;;33.15;16.13;;;7.20;99.90;;;;;;5066167;28;20631;-68
2021/04/05 02:45:40;;;;;;;39.40;17.33;;;7.10;99.90;;;;;;5063473;28;20044;-68
2021/04/05 02:48:07;;;;;;;34.90;15.88;;;7.10;99.90;;;;;;5060768;28;20025;-68
2021/04/05 02:50:34;;;;;;;31.77;16.23;;;7.10;99.90;;;;;;5068202;28;20013;-69
2021/04/05 02:53:05;;;;;;;31.35;15.88;;;7.10;99.90;;;;;;5066236;28;20056;-68
2021/04/05 02:55:31;;;;;;;35.17;15.00;;;7.10;99.90;;;;;;5069478;28;20034;-68
2021/04/05 02:57:57;;;;;;;38.40;16.50;;;7.20;99.90;;;;;;5066662;28;20036;-68
2021/04/05 03:00:23;;;;;;;41.95;15.68;;;7.10;99.90;;;;;;5069002;28;20444;-69
2021/04/05 03:02:52;;;;;;;35.13;16.75;;;7.20;99.90;;;;;;5064713;28;20021;-68
2021/04/05 03:05:21;;;;;;;35.85;16.42;;;7.20;99.90;;;;;;5066406;28;20024;-69
2021/04/05 03:07:49;;;;;;;41.85;16.13;;;7.10;99.90;;;;;;5063296;28;20473;-69
2021/04/05 03:10:16;;;;;;;44.42;16.75;;;7.20;99.90;;;;;;5066962;28;20042;-69
2021/04/05 03:12:44;;;;;;;40.42;15.80;;;7.10;99.90;;;;;;5063923;28;20028;-69
2021/04/05 03:15:12;;;;;;;36.90;15.52;;;7.10;99.90;;;;;;5066010;28;20028;-68
2021/04/05 03:17:40;;;;;;;37.65;15.85;;;7.10;99.90;;;;;;5061387;28;20480;-69
2021/04/05 03:20:19;;;;;;;40.35;16.85;;;7.00;99.90;;;;;;5068054;28;20043;-68
2021/04/05 03:22:45;;;;;;;41.78;17.83;;;7.20;99.90;;;;;;5067155;28;20021;-68
2021/04/05 03:25:22;;;;;;;41.67;17.42;;;7.20;99.90;;;;;;5069246;28;20028;-68
2021/04/05 03:27:49;;;;;;;40.15;17.88;;;7.20;99.90;;;;;;5060081;28;20017;-68
2021/04/05 03:30:41;;;;;;;39.70;17.13;;;7.30;99.90;;;;;;5064438;28;20032;-69
2021/04/05 03:33:14;;;;;;;36.55;17.08;;;7.40;99.90;;;;;;5065253;28;20017;-68
2021/04/05 03:35:43;;;;;;;41.38;17.02;;;7.30;99.90;;;;;;5060062;28;20347;-68
2021/04/05 03:38:12;;;;;;;38.97;18.73;;;7.30;99.90;;;;;;5063919;28;20028;-69
2021/04/05 03:40:43;;;;;;;40.67;17.67;;;7.40;99.90;;;;;;5065284;28;20473;-68
2021/04/05 03:43:35;;;;;;;45.55;17.85;;;7.30;99.90;;;;;;5070248;28;20021;-68
2021/04/05 03:46:07;;;;;;;40.53;19.08;;;7.30;99.90;;;;;;5063473;28;20021;-68
2021/04/05 03:49:01;;;;;;;41.87;18.87;;;7.30;99.90;;;;;;5058785;28;20025;-68
2021/04/05 03:51:54;;;;;;;46.33;19.50;;;7.30;99.90;;;;;;5056303;28;20373;-69
2021/04/05 03:54:21;;;;;;;52.60;21.10;;;7.40;99.90;;;;;;5066816;28;20036;-69
2021/04/05 03:56:51;;;;;;;55.22;20.75;;;7.30;99.90;;;;;;5065011;28;20064;-69
2021/04/05 03:59:35;;;;;;;44.90;20.42;;;7.40;99.90;;;;;;5058363;28;20035;-69
2021/04/05 04:02:11;;;;;;;42.90;20.52;;;7.50;99.90;;;;;;5065908;28;20068;-68
2021/04/05 04:04:43;;;;;;;49.10;22.25;;;7.40;99.90;;;;;;5063051;28;20040;-68
2021/04/05 04:09:39;;;;;;;55.60;23.52;;;7.40;99.90;;;;;;5062614;28;20082;-68
2021/04/05 04:12:09;;;;;;;45.97;21.73;;;7.40;99.90;;;;;;5058228;28;20424;-69
2021/04/05 04:14:38;;;;;;;48.67;21.45;;;7.40;99.90;;;;;;5069183;28;20036;-69
2021/04/05 04:17:07;;;;;;;57.15;24.98;;;7.40;99.90;;;;;;5068146;28;20101;-69
2021/04/05 04:19:34;;;;;;;63.88;26.65;;;7.50;99.90;;;;;;5068415;28;20031;-69
2021/04/05 04:22:01;;;;;;;47.55;23.42;;;7.40;99.90;;;;;;5064934;28;20044;-69
2021/04/05 04:24:27;;;;;;;57.38;25.67;;;7.50;99.90;;;;;;5060079;28;20066;-69
2021/04/05 04:26:53;;;;;;;54.70;24.85;;;7.40;99.90;;;;;;5061629;28;20032;-68
2021/04/05 04:29:21;;;;;;;51.70;24.17;;;7.40;99.90;;;;;;5068049;28;20381;-68
2021/04/05 04:31:47;;;;;;;54.53;27.58;;;7.40;99.90;;;;;;5069051;28;20485;-69
2021/04/05 04:34:17;;;;;;;62.38;27.42;;;7.40;99.90;;;;;;5066540;28;20078;-69
2021/04/05 04:36:43;;;;;;;53.13;25.65;;;7.40;99.90;;;;;;5072655;28;20032;-69
2021/04/05 04:39:13;;;;;;;62.08;25.95;;;7.40;99.90;;;;;;5067862;28;20025;-68
2021/04/05 04:41:44;;;;;;;58.53;28.45;;;7.40;99.90;;;;;;5066680;28;20036;-68
2021/04/05 04:44:10;;;;;;;69.45;27.15;;;7.50;99.90;;;;;;5068326;28;20133;-68
2021/04/05 04:46:37;;;;;;;58.78;27.95;;;7.50;99.90;;;;;;5067098;28;20020;-68
2021/04/05 04:49:08;;;;;;;58.20;27.15;;;7.50;99.90;;;;;;5066194;28;20434;-68
2021/04/05 04:51:35;;;;;;;59.78;27.90;;;7.50;99.90;;;;;;5062143;28;20376;-68
2021/04/05 04:54:02;;;;;;;65.60;28.90;;;7.50;99.90;;;;;;5068236;28;20035;-68
2021/04/05 04:56:29;;;;;;;71.85;30.20;;;7.60;99.90;;;;;;5066044;28;20025;-68
2021/04/05 04:58:59;;;;;;;72.05;30.55;;;7.60;99.90;;;;;;5064177;28;20104;-69
2021/04/05 05:01:26;;;;;;;59.97;29.27;;;7.60;99.90;;;;;;5070572;28;20119;-68
2021/04/05 05:03:56;;;;;;;64.55;27.38;;;7.60;99.90;;;;;;5071401;28;20465;-68
2021/04/05 05:06:23;;;;;;;70.85;29.48;;;7.60;99.90;;;;;;5062030;28;20483;-69
2021/04/05 05:08:50;;;;;;;62.30;29.48;;;7.70;99.90;;;;;;5068016;28;20477;-68
2021/04/05 05:11:16;;;;;;;73.50;31.92;;;7.60;99.90;;;;;;5066609;28;20032;-68
2021/04/05 05:13:42;;;;;;;69.20;31.73;;;7.70;99.90;;;;;;5066150;28;20025;-69
2021/04/05 05:16:09;;;;;;;66.80;30.27;;;7.70;99.90;;;;;;5074468;28;20024;-69
2021/04/05 05:18:35;;;;;;;67.60;31.17;;;7.60;99.90;;;;;;5068305;28;20100;-68
2021/04/05 05:21:05;;;;;;;66.35;30.38;;;7.70;99.90;;;;;;5069264;28;20073;-69
2021/04/05 05:23:33;;;;;;;68.75;29.85;;;7.70;99.90;;;;;;5068433;28;20024;-68
2021/04/05 05:26:00;;;;;;;70.30;30.25;;;7.70;99.90;;;;;;5072076;28;20028;-68
2021/04/05 05:28:27;;;;;;;65.00;32.40;;;7.80;99.90;;;;;;5071967;28;20111;-68
2021/04/05 05:30:52;;;;;;;58.70;27.92;;;7.80;99.90;;;;;;5064399;28;20028;-68
2021/04/05 05:33:20;;;;;;;64.35;30.77;;;7.80;99.90;;;;;;5068631;28;20036;-68
2021/04/05 05:35:47;;;;;;;70.28;32.67;;;7.70;99.90;;;;;;5063512;28;20013;-68
2021/04/05 05:38:13;;;;;;;63.78;31.23;;;7.80;99.90;;;;;;5068054;28;20031;-70
2021/04/05 05:40:40;;;;;;;63.67;29.73;;;7.80;99.90;;;;;;5063478;28;20024;-70
2021/04/05 05:43:15;;;;;;;62.22;28.33;;;7.80;99.90;;;;;;5059559;28;20029;-70
2021/04/05 05:45:55;;;;;;;66.20;28.52;;;7.80;99.90;;;;;;5070901;28;20549;-70
2021/04/05 05:48:24;;;;;;;61.58;28.77;;;7.80;99.90;;;;;;5067864;28;20025;-70
2021/04/05 05:51:11;;;;;;;61.45;29.75;;;7.80;99.90;;;;;;5061563;28;20104;-71
2021/04/05 05:53:55;;;;;;;59.20;28.30;;;7.90;99.90;;;;;;5068530;28;20021;-69
2021/04/05 05:56:29;;;;;;;66.80;31.25;;;7.80;99.90;;;;;;5070783;28;20495;-71
2021/04/05 05:59:22;;;;;;;66.63;32.25;;;7.90;99.90;;;;;;5065771;28;20043;-71
2021/04/05 06:02:38;;;;;;;54.53;27.50;;;7.90;99.90;;;;;;5071093;28;20117;-71
2021/04/05 06:05:22;;;;;;;55.80;29.38;;;7.90;99.90;;;;;;5054777;28;20041;-70
2021/04/05 06:08:17;;;;;;;62.55;29.17;;;7.90;99.90;;;;;;5077540;28;20129;-71
2021/04/05 06:11:19;;;;;;;62.08;29.45;;;8.00;99.90;;;;;;5062657;28;20369;-70
2021/04/05 06:13:53;;;;;;;60.43;27.87;;;8.00;99.90;;;;;;5066457;28;20103;-70
2021/04/05 06:16:28;;;;;;;67.85;31.42;;;8.00;99.90;;;;;;5064793;28;20063;-70
2021/04/05 06:18:59;;;;;;;58.97;30.48;;;8.00;99.90;;;;;;5063991;28;20032;-68
2021/04/05 06:21:44;;;;;;;54.53;29.73;;;8.00;99.90;;;;;;5063422;28;20463;-70
2021/04/05 06:24:25;;;;;;;62.42;28.15;;;8.00;99.90;;;;;;5064194;28;20051;-70
2021/04/05 06:26:54;;;;;;;60.75;28.70;;;8.00;99.90;;;;;;5064797;28;20039;-70
2021/04/05 06:29:32;;;;;;;63.85;29.73;;;8.10;99.90;;;;;;5066408;28;20028;-69
2021/04/05 06:32:14;;;;;;;62.72;30.13;;;8.00;99.90;;;;;;5064710;28;20032;-68
2021/04/05 06:35:16;;;;;;;59.00;28.02;;;8.10;99.90;;;;;;5067531;28;20064;-71
2021/04/05 06:37:55;;;;;;;55.03;28.00;;;8.10;99.90;;;;;;5060854;28;20021;-69
2021/04/05 06:40:23;;;;;;;61.25;29.08;;;8.20;99.90;;;;;;5066572;28;20029;-69
2021/04/05 06:43:19;;;;;;;67.50;30.52;;;8.20;99.90;;;;;;5072365;28;20039;-69
2021/04/05 06:46:10;;;;;;;65.70;29.35;;;8.10;99.90;;;;;;5063444;28;20033;-68
2021/04/05 06:49:04;;;;;;;71.35;30.90;;;8.20;99.90;;;;;;5059049;28;20021;-68
2021/04/05 06:51:59;;;;;;;57.58;28.55;;;8.30;99.90;;;;;;5064738;28;20504;-69
2021/04/05 06:54:55;;;;;;;61.30;28.63;;;8.30;99.90;;;;;;5083988;28;20102;-69
2021/04/05 06:57:44;;;;;;;57.67;30.80;;;8.30;99.90;;;;;;5067554;28;20067;-69
2021/04/05 07:00:12;;;;;;;63.60;28.50;;;8.40;99.90;;;;;;5068810;28;20021;-69
2021/04/05 07:03:05;;;;;;;64.38;30.27;;;8.40;99.90;;;;;;5059910;28;20083;-69
2021/04/05 07:06:00;;;;;;;65.57;30.92;;;8.50;99.90;;;;;;5066157;28;20469;-68
2021/04/05 07:08:31;;;;;;;63.15;31.67;;;8.50;99.90;;;;;;5067287;28;20504;-67
2021/04/05 07:11:17;;;;;;;61.20;30.50;;;8.50;99.90;;;;;;5066806;28;20028;-68
2021/04/05 07:14:02;;;;;;;61.90;29.67;;;8.50;99.90;;;;;;5063340;28;20032;-70
2021/04/05 07:16:51;;;;;;;33.63;14.73;;;8.50;99.90;;;;;;5066014;28;20059;-70
2021/04/05 07:19:31;;;;;;;18.25;8.55;;;8.40;99.90;;;;;;5065415;28;20032;-69
2021/04/05 07:22:15;;;;;;;10.75;4.40;;;8.30;99.90;;;;;;5067949;28;20056;-70
2021/04/05 07:24:47;;;;;;;11.80;3.65;;;8.20;99.90;;;;;;5063487;28;20027;-69
2021/04/05 07:27:21;;;;;;;9.85;2.83;;;8.20;99.90;;;;;;5062282;28;20496;-69
2021/04/05 07:29:47;;;;;;;9.60;3.70;;;8.30;99.90;;;;;;5065874;28;20111;-69
2021/04/05 07:32:18;;;;;;;9.07;2.92;;;8.30;99.90;;;;;;5063337;28;20158;-69
2021/04/05 07:34:50;;;;;;;12.05;2.90;;;8.20;99.90;;;;;;5067678;28;20040;-69
2021/04/05 07:37:43;;;;;;;7.38;3.10;;;8.20;99.90;;;;;;5069309;28;20034;-69
2021/04/05 07:40:46;;;;;;;10.45;3.28;;;8.20;99.90;;;;;;5072223;28;20057;-69
2021/04/05 07:43:38;;;;;;;10.13;2.63;;;8.20;99.90;;;;;;5064306;28;20039;-69
2021/04/05 07:46:35;;;;;;;11.32;3.15;;;8.10;99.90;;;;;;5066652;28;20035;-69
2021/04/05 07:49:00;;;;;;;11.82;2.40;;;8.10;99.90;;;;;;5067590;28;20024;-69
2021/04/05 07:52:07;;;;;;;6.78;2.10;;;8.10;99.90;;;;;;5069013;28;20031;-69
2021/04/05 07:54:35;;;;;;;7.50;2.20;;;8.10;99.90;;;;;;5062559;28;20093;-69
2021/04/05 07:57:30;;;;;;;7.93;2.10;;;8.00;99.90;;;;;;5063891;28;20476;-69
2021/04/05 08:00:32;;;;;;;5.88;1.88;;;8.20;99.90;;;;;;5068619;28;20032;-69
2021/04/05 08:03:22;;;;;;;4.47;2.20;;;8.10;99.90;;;;;;5063145;28;20147;-68
2021/04/05 08:06:03;;;;;;;6.05;2.33;;;8.20;99.90;;;;;;5062526;28;20380;-68
2021/04/05 08:08:58;;;;;;;12.30;2.78;;;8.20;99.90;;;;;;5066396;28;20021;-69
2021/04/05 08:11:45;;;;;;;4.10;1.85;;;8.20;99.90;;;;;;5056848;28;20063;-69
2021/04/05 08:14:30;;;;;;;3.85;1.50;;;8.10;99.90;;;;;;5061354;28;20100;-70
2021/04/05 08:16:59;;;;;;;5.15;1.30;;;7.70;99.90;;;;;;5059769;28;20031;-68
2021/04/05 08:19:57;;;;;;;8.50;1.83;;;7.70;99.90;;;;;;5065643;28;20040;-69
2021/04/05 08:22:58;;;;;;;5.53;1.33;;;7.60;99.90;;;;;;5060095;28;20147;-69
2021/04/05 08:25:44;;;;;;;6.65;1.88;;;7.50;99.90;;;;;;5065319;28;20124;-68
2021/04/05 08:28:12;;;;;;;8.98;1.90;;;7.50;99.90;;;;;;5065436;28;20061;-68
2021/04/05 08:31:04;;;;;;;9.05;1.85;;;7.40;99.90;;;;;;5062474;28;20021;-68
2021/04/05 08:33:56;;;;;;;7.28;1.50;;;7.20;99.90;;;;;;5066593;28;20489;-68
2021/04/05 08:36:33;;;;;;;6.28;2.05;;;6.90;99.90;;;;;;5061431;28;20071;-68
2021/04/05 08:39:19;;;;;;;6.93;1.42;;;6.90;99.90;;;;;;5064653;28;20029;-67
2021/04/05 08:41:55;;;;;;;12.70;2.03;;;7.00;99.90;;;;;;5065748;28;20633;-67
2021/04/05 08:44:30;;;;;;;13.02;2.10;;;7.00;99.90;;;;;;5068872;28;20036;-67
2021/04/05 08:46:59;;;;;;;8.32;1.83;;;7.00;99.90;;;;;;5062214;28;20032;-67
2021/04/05 08:49:26;;;;;;;17.85;2.88;;;7.00;99.90;;;;;;5059095;28;20025;-68
2021/04/05 08:52:02;;;;;;;17.80;2.40;;;6.70;99.90;;;;;;5058634;28;20485;-68
2021/04/05 08:54:31;;;;;;;22.30;3.63;;;6.80;99.90;;;;;;5063709;28;20039;-67
2021/04/05 08:57:01;;;;;;;22.23;4.13;;;6.80;99.90;;;;;;5063110;28;20055;-68
2021/04/05 08:59:50;;;;;;;17.35;3.13;;;6.80;99.90;;;;;;5067766;28;20508;-68
2021/04/05 09:02:19;;;;;;;15.93;2.45;;;6.60;99.90;;;;;;5063677;28;20507;-68
2021/04/05 09:04:47;;;;;;;12.63;2.55;;;6.60;99.90;;;;;;5063915;28;20036;-67
2021/04/05 09:07:26;;;;;;;17.38;3.50;;;6.60;99.90;;;;;;5055400;28;20118;-68
2021/04/05 09:09:56;;;;;;;17.33;2.70;;;6.60;99.90;;;;;;5061236;28;20070;-68
2021/04/05 09:12:25;;;;;;;11.73;2.80;;;6.70;99.90;;;;;;5062745;28;20027;-68
2021/04/05 09:15:29;;;;;;;17.73;3.17;;;6.70;99.90;;;;;;5067357;28;20028;-68
2021/04/05 09:18:21;;;;;;;25.00;3.33;;;6.70;99.90;;;;;;5073743;28;20505;-68
2021/04/05 09:21:19;;;;;;;15.98;3.47;;;6.70;99.90;;;;;;5072404;28;20085;-68
2021/04/05 09:23:57;;;;;;;21.27;3.90;;;6.90;99.90;;;;;;5069886;28;20021;-68
2021/04/05 09:26:22;;;;;;;14.77;3.28;;;6.90;99.90;;;;;;5072353;28;20505;-68
2021/04/05 09:29:05;;;;;;;16.88;3.58;;;6.80;99.90;;;;;;5065486;28;20029;-69
2021/04/05 09:31:49;;;;;;;20.38;3.45;;;6.80;99.90;;;;;;5065302;28;20115;-68
2021/04/05 09:34:27;;;;;;;17.35;3.63;;;6.80;99.90;;;;;;5067140;28;20028;-69
2021/04/05 09:37:07;;;;;;;12.93;3.28;;;6.60;99.90;;;;;;5067485;28;20032;-69
2021/04/05 09:39:52;;;;;;;13.43;2.70;;;6.50;99.90;;;;;;5068107;28;20048;-68
2021/04/05 09:42:48;;;;;;;14.52;3.10;;;6.50;99.90;;;;;;5073618;28;20032;-68
2021/04/05 09:45:30;;;;;;;13.05;2.65;;;6.50;99.90;;;;;;5075265;28;20024;-68
2021/04/05 09:48:24;;;;;;;20.30;3.08;;;6.50;99.90;;;;;;5063047;28;20033;-68
2021/04/05 09:51:20;;;;;;;13.52;1.63;;;6.50;99.90;;;;;;5068483;28;20477;-68
2021/04/05 09:54:04;;;;;;;5.97;1.40;;;6.20;99.90;;;;;;5067311;28;20032;-70
2021/04/05 09:56:35;;;;;;;8.77;1.67;;;6.20;99.90;;;;;;5050040;28;20158;-69
2021/04/05 09:59:10;;;;;;;9.95;1.75;;;6.40;99.90;;;;;;5058258;28;20032;-69
2021/04/05 10:01:36;;;;;;;9.95;1.45;;;6.50;99.90;;;;;;5062374;28;20033;-69
2021/04/05 10:04:10;;;;;;;9.23;1.90;;;6.70;99.90;;;;;;5065145;28;20016;-69
2021/04/05 10:06:37;;;;;;;10.10;1.73;;;6.90;99.90;;;;;;5060752;28;20025;-69
2021/04/05 10:09:06;;;;;;;9.82;1.80;;;7.20;99.90;;;;;;5067226;28;20082;-69
2021/04/05 10:11:35;;;;;;;10.02;2.10;;;7.30;99.90;;;;;;5062848;28;20119;-69
2021/04/05 10:14:14;;;;;;;7.97;2.03;;;7.30;99.90;;;;;;5070115;28;20024;-70
2021/04/05 10:16:45;;;;;;;8.73;2.42;;;7.40;99.90;;;;;;5061720;28;20036;-70
2021/04/05 10:19:15;;;;;;;9.68;2.80;;;7.50;99.90;;;;;;5070408;28;20028;-69
2021/04/05 10:21:53;;;;;;;7.53;1.70;;;7.20;99.90;;;;;;5070778;28;20158;-69
2021/04/05 10:24:21;;;;;;;11.93;2.17;;;7.10;99.90;;;;;;5070883;28;20495;-70
2021/04/05 10:26:52;;;;;;;5.20;1.10;;;7.00;99.90;;;;;;5073623;28;20036;-70
2021/04/05 10:29:19;;;;;;;4.13;0.95;;;7.00;99.90;;;;;;5070419;28;20151;-70
2021/04/05 10:31:46;;;;;;;3.95;1.10;;;6.90;99.90;;;;;;5071205;28;20044;-69
2021/04/05 10:34:13;;;;;;;6.15;1.33;;;7.10;99.90;;;;;;5074548;28;20689;-70
2021/04/05 10:36:51;;;;;;;2.05;0.70;;;7.20;99.90;;;;;;5072243;28;20496;-71
2021/04/05 10:39:17;;;;;;;3.78;0.60;;;7.00;99.90;;;;;;5071763;28;20052;-69
2021/04/05 10:42:10;;;;;;;4.90;1.08;;;7.10;99.90;;;;;;5069673;28;20696;-69
2021/04/05 10:44:39;;;;;;;5.32;1.63;;;7.20;99.90;;;;;;5060670;28;20024;-69
2021/04/05 10:47:11;;;;;;;4.07;0.98;;;7.30;99.90;;;;;;5067474;28;20031;-69
2021/04/05 10:49:40;;;;;;;7.35;1.48;;;7.40;99.90;;;;;;5066257;28;20029;-70
2021/04/05 10:52:12;;;;;;;9.85;1.35;;;7.40;99.90;;;;;;5075499;28;20481;-70
2021/04/05 10:54:43;;;;;;;4.70;1.00;;;7.40;99.90;;;;;;5066717;28;20392;-69
2021/04/05 10:57:16;;;;;;;12.77;2.22;;;7.40;99.90;;;;;;5068319;28;20025;-69
2021/04/05 11:00:20;;;;;;;7.80;1.90;;;7.40;99.90;;;;;;5070462;28;20029;-68
2021/04/05 11:02:55;;;;;;;;;;;7.50;99.90;;;;;;5082229;28;20444;-68
2021/04/05 11:05:25;;;;;;;4.15;1.40;;;7.60;99.90;;;;;;5064838;28;20447;-68
2021/04/05 11:07:58;;;;;;;5.72;1.83;;;7.70;99.90;;;;;;5064295;28;20032;-68
2021/04/05 11:10:28;;;;;;;9.25;1.88;;;7.70;99.90;;;;;;5067814;28;20039;-68
2021/04/05 11:13:03;;;;;;;12.27;2.08;;;7.80;99.90;;;;;;5065452;28;20519;-70
2021/04/05 11:15:30;;;;;;;8.02;1.95;;;7.80;99.40;;;;;;5066158;28;20500;-69
2021/04/05 11:17:57;;;;;;;7.82;1.80;;;7.80;99.90;;;;;;5067374;28;20029;-69
2021/04/05 11:20:30;;;;;;;13.43;2.42;;;7.80;99.90;;;;;;5067000;28;20025;-69
2021/04/05 11:23:02;;;;;;;13.60;2.47;;;7.90;99.90;;;;;;5072434;28;20040;-70
2021/04/05 11:25:39;;;;;;;9.02;2.30;;;8.10;99.90;;;;;;5082393;28;20028;-69
2021/04/05 11:28:28;;;;;;;7.75;1.40;;;8.00;98.90;;;;;;5063433;28;20032;-69
2021/04/05 11:31:03;;;;;;;8.90;1.98;;;8.20;98.60;;;;;;5067499;28;20025;-69
2021/04/05 11:33:32;;;;;;;10.02;1.92;;;8.30;98.40;;;;;;5060742;28;20374;-69
2021/04/05 11:35:59;;;;;;;9.13;1.77;;;8.30;95.60;;;;;;5065517;28;20377;-69
2021/04/05 11:38:25;;;;;;;9.50;2.70;;;8.40;95.80;;;;;;5066777;28;20024;-69
2021/04/05 11:41:06;;;;;;;9.35;1.80;;;8.40;96.10;;;;;;5072931;28;20040;-68
2021/04/05 11:43:36;;;;;;;7.78;1.90;;;8.40;95.80;;;;;;5069349;28;20024;-68
2021/04/05 11:46:09;;;;;;;9.20;2.78;;;8.20;95.00;;;;;;5070555;28;20028;-68
2021/04/05 11:48:35;;;;;;;;;;;8.40;95.20;;;;;;5070718;28;20017;-69
2021/04/05 11:51:00;;;;;;;6.63;1.58;;;8.50;94.00;;;;;;5067509;28;19919;-69
2021/04/05 11:53:41;;;;;;;7.75;2.90;;;8.60;93.70;;;;;;5059190;28;20496;-70
2021/04/05 11:56:15;;;;;;;9.90;1.40;;;8.50;91.80;;;;;;5063102;28;20041;-69
2021/04/05 11:59:04;;;;;;;9.07;1.98;;;8.20;92.70;;;;;;5060085;28;20033;-68
2021/04/05 12:01:46;;;;;;;7.47;1.95;;;8.00;91.90;;;;;;5068656;28;20146;-68
2021/04/05 12:04:20;;;;;;;10.35;1.70;;;7.90;91.80;;;;;;5067139;28;20020;-69
2021/04/05 12:07:04;;;;;;;6.00;1.40;;;7.90;93.60;;;;;;5061723;28;20043;-69
2021/04/05 12:09:37;;;;;;;11.23;1.85;;;7.90;91.80;;;;;;5068466;28;20115;-68
2021/04/05 12:12:06;;;;;;;7.82;1.73;;;7.70;91.30;;;;;;5068437;28;20067;-69
2021/04/05 12:14:33;;;;;;;6.55;1.58;;;7.80;91.90;;;;;;5070814;28;20028;-69
2021/04/05 12:17:01;;;;;;;6.60;1.60;;;8.10;91.80;;;;;;5059877;28;20031;-69
2021/04/05 12:19:38;;;;;;;12.10;1.77;;;8.30;91.30;;;;;;5070432;28;20040;-69
2021/04/05 12:22:06;;;;;;;9.93;1.58;;;8.20;93.40;;;;;;5062916;28;20037;-68
2021/04/05 12:24:46;;;;;;;8.52;1.67;;;7.90;93.90;;;;;;5061281;28;20469;-68
2021/04/05 12:27:13;;;;;;;5.00;1.50;;;8.00;95.40;;;;;;5081944;28;20047;-68
2021/04/05 12:29:42;;;;;;;9.05;1.50;;;7.90;95.40;;;;;;5065844;28;20021;-68
2021/04/05 12:32:12;;;;;;;5.07;1.33;;;7.70;94.70;;;;;;5070565;28;20421;-68
2021/04/05 12:34:38;;;;;;;2.35;1.10;;;7.80;95.20;;;;;;5062215;28;20040;-68
2021/04/05 12:37:16;;;;;;;2.92;1.27;;;7.80;94.20;;;;;;5062536;28;20036;-68
2021/04/05 12:39:44;;;;;;;7.28;0.95;;;7.60;94.70;;;;;;5059652;28;20772;-68
2021/04/05 12:42:11;;;;;;;3.05;1.00;;;7.40;93.30;;;;;;5065805;28;20040;-68
2021/04/05 12:44:39;;;;;;;4.57;1.10;;;7.60;93.30;;;;;;5065077;28;20373;-68
2021/04/05 12:47:10;;;;;;;4.32;0.77;;;7.90;92.90;;;;;;5063333;28;20036;-68
2021/04/05 12:49:41;;;;;;;4.63;0.70;;;8.00;91.50;;;;;;5065779;28;20055;-69
2021/04/05 12:52:12;;;;;;;6.95;0.88;;;8.00;91.10;;;;;;5072171;28;20032;-68
2021/04/05 12:54:44;;;;;;;7.78;1.23;;;8.20;90.20;;;;;;5069509;28;20047;-69
2021/04/05 12:57:10;;;;;;;4.70;1.25;;;8.20;89.90;;;;;;5068141;28;20040;-69
2021/04/05 12:59:37;;;;;;;4.70;0.90;;;8.30;88.70;;;;;;5073952;28;20542;-67
2021/04/05 13:02:18;;;;;;;5.57;1.10;;;8.30;89.90;;;;;;5069404;28;20111;-69
2021/04/05 13:05:09;;;;;;;9.18;1.65;;;8.40;91.10;;;;;;5087653;28;20025;-68
2021/04/05 13:07:38;;;;;;;7.90;1.80;;;8.40;91.00;;;;;;5073047;28;20028;-69
2021/04/05 13:10:25;;;;;;;5.93;1.67;;;8.30;90.70;;;;;;5068445;28;20033;-69
2021/04/05 13:12:54;;;;;;;5.45;1.20;;;8.40;91.60;;;;;;5058629;28;20032;-70
2021/04/05 13:15:24;;;;;;;8.38;1.45;;;8.50;91.30;;;;;;5069040;28;20052;-69
2021/04/05 13:17:53;;;;;;;8.57;1.60;;;8.60;91.70;;;;;;5068572;28;20046;-68
2021/04/05 13:20:21;;;;;;;6.45;1.17;;;8.80;91.60;;;;;;5064927;28;20032;-69
2021/04/05 13:23:04;;;;;;;9.50;1.48;;;8.50;90.90;;;;;;5069268;28;20037;-68